sensor_id;sensor_type;location;lat;lon;timestamp;temperature;humidity
20370;DHT22;10344;47.592;9.600;2023-06-22T00:02:07;22.00;99.90
20370;DHT22;10344;47.592;9.600;2023-06-22T00:04:39;21.90;99.90
20370;DHT22;10344;47.592;9.600;2023-06-22T00:07:05;21.90;99.90
20370;DHT22;10344;47.592;9.600;2023-06-22T00:09:33;22.10;99.90
20370;DHT22;10344;47.592;9.600;2023-06-22T00:12:02;22.10;99.90
20370;DHT22;10344;47.592;9.600;2023-06-22T00:14:30;22.20;99.90
20370;DHT22;10344;47.592;9.600;2023-06-22T00:16:55;22.10;99.90
20370;DHT22;10344;47.592;9.600;2023-06-22T00:19:22;22.10;99.90
20370;DHT22;10344;47.592;9.600;2023-06-22T00:21:48;22.10;99.90
20370;DHT22;10344;47.592;9.600;2023-06-22T00:24:20;22.10;99.90
20370;DHT22;10344;47.592;9.600;2023-06-22T00:26:47;22.10;99.90
20370;DHT22;10344;47.592;9.600;2023-06-22T00:29:13;22.30;99.90
20370;DHT22;10344;47.592;9.600;2023-06-22T00:31:38;22.30;99.90
20370;DHT22;10344;47.592;9.600;2023-06-22T00:34:06;22.30;99.90
20370;DHT22;10344;47.592;9.600;2023-06-22T00:36:34;22.30;99.90
20370;DHT22;10344;47.592;9.600;2023-06-22T00:39:02;22.30;99.90
20370;DHT22;10344;47.592;9.600;2023-06-22T00:41:28;22.30;99.90
20370;DHT22;10344;47.592;9.600;2023-06-22T00:43:56;22.30;99.90
20370;DHT22;10344;47.592;9.600;2023-06-22T00:46:21;22.20;99.90
20370;DHT22;10344;47.592;9.600;2023-06-22T00:48:48;22.10;99.90
20370;DHT22;10344;47.592;9.600;2023-06-22T00:51:13;22.10;99.90
20370;DHT22;10344;47.592;9.600;2023-06-22T00:53:44;22.00;99.90
20370;DHT22;10344;47.592;9.600;2023-06-22T00:56:09;21.90;99.90
20370;DHT22;10344;47.592;9.600;2023-06-22T00:58:40;21.90;99.90
20370;DHT22;10344;47.592;9.600;2023-06-22T01:01:07;21.90;99.90
20370;DHT22;10344;47.592;9.600;2023-06-22T01:03:35;21.80;99.90
20370;DHT22;10344;47.592;9.600;2023-06-22T01:06:06;21.70;99.90
20370;DHT22;10344;47.592;9.600;2023-06-22T01:11:01;21.50;99.90
20370;DHT22;10344;47.592;9.600;2023-06-22T01:16:31;21.30;99.90
20370;DHT22;10344;47.592;9.600;2023-06-22T01:18:59;21.20;99.90
20370;DHT22;10344;47.592;9.600;2023-06-22T01:21:25;21.10;99.90
20370;DHT22;10344;47.592;9.600;2023-06-22T01:24:10;21.10;99.90
20370;DHT22;10344;47.592;9.600;2023-06-22T01:29:25;20.90;99.90
20370;DHT22;10344;47.592;9.600;2023-06-22T01:31:52;20.80;99.90
20370;DHT22;10344;47.592;9.600;2023-06-22T01:34:19;20.70;99.90
20370;DHT22;10344;47.592;9.600;2023-06-22T01:36:45;20.70;99.90
20370;DHT22;10344;47.592;9.600;2023-06-22T01:39:11;20.60;99.90
20370;DHT22;10344;47.592;9.600;2023-06-22T01:41:37;20.60;99.90
20370;DHT22;10344;47.592;9.600;2023-06-22T01:44:06;20.60;99.90
20370;DHT22;10344;47.592;9.600;2023-06-22T01:46:35;20.50;99.90
20370;DHT22;10344;47.592;9.600;2023-06-22T01:49:04;20.40;99.90
20370;DHT22;10344;47.592;9.600;2023-06-22T01:51:31;20.40;99.90
20370;DHT22;10344;47.592;9.600;2023-06-22T01:53:59;20.40;99.90
20370;DHT22;10344;47.592;9.600;2023-06-22T01:56:28;20.40;99.90
20370;DHT22;10344;47.592;9.600;2023-06-22T01:59:04;20.60;99.90
20370;DHT22;10344;47.592;9.600;2023-06-22T02:01:36;20.70;99.90
20370;DHT22;10344;47.592;9.600;2023-06-22T02:04:13;20.70;99.90
20370;DHT22;10344;47.592;9.600;2023-06-22T02:06:45;20.70;99.90
20370;DHT22;10344;47.592;9.600;2023-06-22T02:09:16;20.50;99.90
20370;DHT22;10344;47.592;9.600;2023-06-22T02:11:44;20.50;99.90
20370;DHT22;10344;47.592;9.600;2023-06-22T02:14:12;20.40;99.90
20370;DHT22;10344;47.592;9.600;2023-06-22T02:16:38;20.30;99.90
20370;DHT22;10344;47.592;9.600;2023-06-22T02:19:04;20.30;99.90
20370;DHT22;10344;47.592;9.600;2023-06-22T02:21:34;20.20;99.90
20370;DHT22;10344;47.592;9.600;2023-06-22T02:23:59;20.20;99.90
20370;DHT22;10344;47.592;9.600;2023-06-22T02:26:26;20.10;99.90
20370;DHT22;10344;47.592;9.600;2023-06-22T02:28:52;20.10;99.90
20370;DHT22;10344;47.592;9.600;2023-06-22T02:31:18;20.10;99.90
20370;DHT22;10344;47.592;9.600;2023-06-22T02:33:44;20.10;99.90
20370;DHT22;10344;47.592;9.600;2023-06-22T02:36:16;20.00;99.90
20370;DHT22;10344;47.592;9.600;2023-06-22T02:38:50;20.00;99.90
20370;DHT22;10344;47.592;9.600;2023-06-22T02:41:18;20.00;99.90
20370;DHT22;10344;47.592;9.600;2023-06-22T02:43:45;19.90;99.90
20370;DHT22;10344;47.592;9.600;2023-06-22T02:46:11;19.90;99.90
20370;DHT22;10344;47.592;9.600;2023-06-22T02:48:40;19.90;99.90
20370;DHT22;10344;47.592;9.600;2023-06-22T02:51:08;19.90;99.90
20370;DHT22;10344;47.592;9.600;2023-06-22T02:53:36;19.80;99.90
20370;DHT22;10344;47.592;9.600;2023-06-22T02:56:02;19.80;99.90
20370;DHT22;10344;47.592;9.600;2023-06-22T02:58:33;19.80;99.90
20370;DHT22;10344;47.592;9.600;2023-06-22T03:01:07;19.80;99.90
20370;DHT22;10344;47.592;9.600;2023-06-22T03:03:35;19.80;99.90
20370;DHT22;10344;47.592;9.600;2023-06-22T03:06:01;19.70;99.90
20370;DHT22;10344;47.592;9.600;2023-06-22T03:08:26;19.70;99.90
20370;DHT22;10344;47.592;9.600;2023-06-22T03:10:52;19.70;99.90
20370;DHT22;10344;47.592;9.600;2023-06-22T03:13:18;19.60;99.90
20370;DHT22;10344;47.592;9.600;2023-06-22T03:15:46;19.50;99.90
20370;DHT22;10344;47.592;9.600;2023-06-22T03:18:14;19.50;99.90
20370;DHT22;10344;47.592;9.600;2023-06-22T03:20:41;19.40;99.90
20370;DHT22;10344;47.592;9.600;2023-06-22T03:23:11;19.40;99.90
20370;DHT22;10344;47.592;9.600;2023-06-22T03:25:37;19.40;99.90
20370;DHT22;10344;47.592;9.600;2023-06-22T03:28:05;19.30;99.90
20370;DHT22;10344;47.592;9.600;2023-06-22T03:30:30;19.40;99.90
20370;DHT22;10344;47.592;9.600;2023-06-22T03:32:58;19.20;99.90
20370;DHT22;10344;47.592;9.600;2023-06-22T03:35:26;19.20;99.90
20370;DHT22;10344;47.592;9.600;2023-06-22T03:37:54;19.20;99.90
20370;DHT22;10344;47.592;9.600;2023-06-22T03:40:20;19.20;99.90
20370;DHT22;10344;47.592;9.600;2023-06-22T03:42:46;19.20;99.90
20370;DHT22;10344;47.592;9.600;2023-06-22T03:45:14;19.20;99.90
20370;DHT22;10344;47.592;9.600;2023-06-22T03:47:39;19.20;99.90
20370;DHT22;10344;47.592;9.600;2023-06-22T03:50:05;19.20;99.90
20370;DHT22;10344;47.592;9.600;2023-06-22T03:52:31;19.20;99.90
20370;DHT22;10344;47.592;9.600;2023-06-22T03:54:57;19.30;99.90
20370;DHT22;10344;47.592;9.600;2023-06-22T03:57:26;19.30;99.90
20370;DHT22;10344;47.592;9.600;2023-06-22T03:59:55;19.30;99.90
20370;DHT22;10344;47.592;9.600;2023-06-22T04:02:21;19.30;99.90
20370;DHT22;10344;47.592;9.600;2023-06-22T04:04:51;19.30;99.90
20370;DHT22;10344;47.592;9.600;2023-06-22T04:07:17;19.30;99.90
20370;DHT22;10344;47.592;9.600;2023-06-22T04:09:45;19.40;99.90
20370;DHT22;10344;47.592;9.600;2023-06-22T04:12:13;19.40;99.90
20370;DHT22;10344;47.592;9.600;2023-06-22T04:14:39;19.40;99.90
20370;DHT22;10344;47.592;9.600;2023-06-22T04:17:05;19.40;99.90
20370;DHT22;10344;47.592;9.600;2023-06-22T04:19:30;19.40;99.90
20370;DHT22;10344;47.592;9.600;2023-06-22T04:21:58;19.40;99.90
20370;DHT22;10344;47.592;9.600;2023-06-22T04:24:24;19.40;99.90
20370;DHT22;10344;47.592;9.600;2023-06-22T04:26:49;19.40;99.90
20370;DHT22;10344;47.592;9.600;2023-06-22T04:29:20;19.40;99.90
20370;DHT22;10344;47.592;9.600;2023-06-22T04:31:56;19.50;99.90
20370;DHT22;10344;47.592;9.600;2023-06-22T04:34:28;19.50;99.90
20370;DHT22;10344;47.592;9.600;2023-06-22T04:36:56;19.50;99.90
20370;DHT22;10344;47.592;9.600;2023-06-22T04:39:22;19.50;99.90
20370;DHT22;10344;47.592;9.600;2023-06-22T04:41:52;19.50;99.90
20370;DHT22;10344;47.592;9.600;2023-06-22T04:44:18;19.60;99.90
20370;DHT22;10344;47.592;9.600;2023-06-22T04:46:50;19.70;99.90
20370;DHT22;10344;47.592;9.600;2023-06-22T04:49:22;19.70;99.90
20370;DHT22;10344;47.592;9.600;2023-06-22T04:52:00;19.70;99.90
20370;DHT22;10344;47.592;9.600;2023-06-22T04:54:31;19.80;99.90
20370;DHT22;10344;47.592;9.600;2023-06-22T04:57:02;19.90;99.90
20370;DHT22;10344;47.592;9.600;2023-06-22T04:59:31;20.10;99.90
20370;DHT22;10344;47.592;9.600;2023-06-22T05:01:57;20.30;99.90
20370;DHT22;10344;47.592;9.600;2023-06-22T05:04:23;20.40;99.90
20370;DHT22;10344;47.592;9.600;2023-06-22T05:06:50;20.50;99.90
20370;DHT22;10344;47.592;9.600;2023-06-22T05:09:15;20.50;99.90
20370;DHT22;10344;47.592;9.600;2023-06-22T05:11:42;20.50;99.90
20370;DHT22;10344;47.592;9.600;2023-06-22T05:14:10;20.50;99.90
20370;DHT22;10344;47.592;9.600;2023-06-22T05:16:36;20.60;99.90
20370;DHT22;10344;47.592;9.600;2023-06-22T05:19:05;20.70;99.90
20370;DHT22;10344;47.592;9.600;2023-06-22T05:21:32;20.80;99.90
20370;DHT22;10344;47.592;9.600;2023-06-22T05:24:00;20.90;99.90
20370;DHT22;10344;47.592;9.600;2023-06-22T05:26:28;21.00;99.90
20370;DHT22;10344;47.592;9.600;2023-06-22T05:28:57;21.00;99.90
20370;DHT22;10344;47.592;9.600;2023-06-22T05:31:23;21.10;99.90
20370;DHT22;10344;47.592;9.600;2023-06-22T05:33:55;21.20;99.90
20370;DHT22;10344;47.592;9.600;2023-06-22T05:36:25;21.30;99.90
20370;DHT22;10344;47.592;9.600;2023-06-22T05:38:53;21.30;99.90
20370;DHT22;10344;47.592;9.600;2023-06-22T05:41:19;21.40;99.90
20370;DHT22;10344;47.592;9.600;2023-06-22T05:43:45;21.50;99.90
20370;DHT22;10344;47.592;9.600;2023-06-22T05:46:13;21.50;99.90
20370;DHT22;10344;47.592;9.600;2023-06-22T05:48:38;21.50;99.90
20370;DHT22;10344;47.592;9.600;2023-06-22T05:51:06;21.60;99.90
20370;DHT22;10344;47.592;9.600;2023-06-22T05:53:32;21.70;99.90
20370;DHT22;10344;47.592;9.600;2023-06-22T05:56:00;21.70;99.90
20370;DHT22;10344;47.592;9.600;2023-06-22T05:58:29;21.90;99.90
20370;DHT22;10344;47.592;9.600;2023-06-22T06:00:57;21.80;99.90
20370;DHT22;10344;47.592;9.600;2023-06-22T06:03:25;21.90;99.90
20370;DHT22;10344;47.592;9.600;2023-06-22T06:05:50;22.00;99.90
20370;DHT22;10344;47.592;9.600;2023-06-22T06:08:16;22.10;99.90
20370;DHT22;10344;47.592;9.600;2023-06-22T06:10:44;22.20;99.90
20370;DHT22;10344;47.592;9.600;2023-06-22T06:13:11;22.30;99.90
20370;DHT22;10344;47.592;9.600;2023-06-22T06:15:37;22.40;99.90
20370;DHT22;10344;47.592;9.600;2023-06-22T06:18:04;22.40;99.90
20370;DHT22;10344;47.592;9.600;2023-06-22T06:20:39;22.50;99.90
20370;DHT22;10344;47.592;9.600;2023-06-22T06:23:05;22.60;99.90
20370;DHT22;10344;47.592;9.600;2023-06-22T06:25:30;22.60;99.90
20370;DHT22;10344;47.592;9.600;2023-06-22T06:27:58;22.80;99.90
20370;DHT22;10344;47.592;9.600;2023-06-22T06:30:26;22.90;99.90
20370;DHT22;10344;47.592;9.600;2023-06-22T06:32:54;22.80;99.90
20370;DHT22;10344;47.592;9.600;2023-06-22T06:35:19;23.00;99.90
20370;DHT22;10344;47.592;9.600;2023-06-22T06:37:48;23.00;99.90
20370;DHT22;10344;47.592;9.600;2023-06-22T06:40:17;23.00;99.90
20370;DHT22;10344;47.592;9.600;2023-06-22T06:42:44;23.10;99.90
20370;DHT22;10344;47.592;9.600;2023-06-22T06:45:28;23.10;99.90
20370;DHT22;10344;47.592;9.600;2023-06-22T06:47:56;23.20;99.90
20370;DHT22;10344;47.592;9.600;2023-06-22T06:50:23;23.20;99.90
20370;DHT22;10344;47.592;9.600;2023-06-22T06:52:49;23.50;99.90
20370;DHT22;10344;47.592;9.600;2023-06-22T06:55:16;24.00;99.90
20370;DHT22;10344;47.592;9.600;2023-06-22T06:57:42;24.60;99.90
20370;DHT22;10344;47.592;9.600;2023-06-22T07:00:14;25.30;99.90
20370;DHT22;10344;47.592;9.600;2023-06-22T07:02:41;25.90;99.90
20370;DHT22;10344;47.592;9.600;2023-06-22T07:05:09;26.20;99.90
20370;DHT22;10344;47.592;9.600;2023-06-22T07:07:37;26.80;99.90
20370;DHT22;10344;47.592;9.600;2023-06-22T07:10:07;27.40;99.90
20370;DHT22;10344;47.592;9.600;2023-06-22T07:12:33;27.90;99.90
20370;DHT22;10344;47.592;9.600;2023-06-22T07:15:06;27.90;99.90
20370;DHT22;10344;47.592;9.600;2023-06-22T07:17:38;28.10;99.90
20370;DHT22;10344;47.592;9.600;2023-06-22T07:20:06;27.90;99.90
20370;DHT22;10344;47.592;9.600;2023-06-22T07:22:37;28.00;99.90
20370;DHT22;10344;47.592;9.600;2023-06-22T07:25:03;28.10;99.90
20370;DHT22;10344;47.592;9.600;2023-06-22T07:27:44;28.30;99.90
20370;DHT22;10344;47.592;9.600;2023-06-22T07:30:11;28.30;99.90
20370;DHT22;10344;47.592;9.600;2023-06-22T07:32:37;28.50;99.90
20370;DHT22;10344;47.592;9.600;2023-06-22T07:35:03;28.40;99.90
20370;DHT22;10344;47.592;9.600;2023-06-22T07:37:29;28.50;99.90
20370;DHT22;10344;47.592;9.600;2023-06-22T07:39:55;28.90;99.90
20370;DHT22;10344;47.592;9.600;2023-06-22T07:42:25;29.50;99.90
20370;DHT22;10344;47.592;9.600;2023-06-22T07:44:51;29.80;99.90
20370;DHT22;10344;47.592;9.600;2023-06-22T07:47:17;29.50;99.90
20370;DHT22;10344;47.592;9.600;2023-06-22T07:49:52;29.40;99.90
20370;DHT22;10344;47.592;9.600;2023-06-22T07:52:20;29.80;99.90
20370;DHT22;10344;47.592;9.600;2023-06-22T07:54:46;30.40;99.90
20370;DHT22;10344;47.592;9.600;2023-06-22T07:57:12;30.80;99.90
20370;DHT22;10344;47.592;9.600;2023-06-22T07:59:42;30.90;99.90
20370;DHT22;10344;47.592;9.600;2023-06-22T08:02:08;30.90;99.90
20370;DHT22;10344;47.592;9.600;2023-06-22T08:04:37;31.00;99.90
20370;DHT22;10344;47.592;9.600;2023-06-22T08:07:05;31.30;99.90
20370;DHT22;10344;47.592;9.600;2023-06-22T08:09:33;31.70;99.90
20370;DHT22;10344;47.592;9.600;2023-06-22T08:11:59;32.10;99.90
20370;DHT22;10344;47.592;9.600;2023-06-22T08:14:29;32.80;99.90
20370;DHT22;10344;47.592;9.600;2023-06-22T08:16:56;33.20;99.90
20370;DHT22;10344;47.592;9.600;2023-06-22T08:19:22;33.70;99.90
20370;DHT22;10344;47.592;9.600;2023-06-22T08:21:50;34.20;99.90
20370;DHT22;10344;47.592;9.600;2023-06-22T08:24:20;34.40;99.90
20370;DHT22;10344;47.592;9.600;2023-06-22T08:26:54;34.30;99.90
20370;DHT22;10344;47.592;9.600;2023-06-22T08:29:24;33.20;99.90
20370;DHT22;10344;47.592;9.600;2023-06-22T08:31:52;31.40;99.90
20370;DHT22;10344;47.592;9.600;2023-06-22T08:34:18;29.80;99.90
20370;DHT22;10344;47.592;9.600;2023-06-22T08:36:47;29.10;99.90
20370;DHT22;10344;47.592;9.600;2023-06-22T08:39:17;28.40;99.90
20370;DHT22;10344;47.592;9.600;2023-06-22T08:41:46;27.70;99.90
20370;DHT22;10344;47.592;9.600;2023-06-22T08:44:12;27.40;99.90
20370;DHT22;10344;47.592;9.600;2023-06-22T08:46:37;27.20;99.90
20370;DHT22;10344;47.592;9.600;2023-06-22T08:49:06;27.00;99.90
20370;DHT22;10344;47.592;9.600;2023-06-22T08:51:35;27.20;99.90
20370;DHT22;10344;47.592;9.600;2023-06-22T08:54:01;27.40;99.90
20370;DHT22;10344;47.592;9.600;2023-06-22T08:56:27;27.80;99.90
20370;DHT22;10344;47.592;9.600;2023-06-22T08:58:52;28.10;99.90
20370;DHT22;10344;47.592;9.600;2023-06-22T09:01:21;28.10;99.90
20370;DHT22;10344;47.592;9.600;2023-06-22T09:03:49;28.20;99.90
20370;DHT22;10344;47.592;9.600;2023-06-22T09:06:20;28.30;99.90
20370;DHT22;10344;47.592;9.600;2023-06-22T09:08:49;28.60;99.90
20370;DHT22;10344;47.592;9.600;2023-06-22T09:11:15;28.80;99.90
20370;DHT22;10344;47.592;9.600;2023-06-22T09:13:41;29.20;99.90
20370;DHT22;10344;47.592;9.600;2023-06-22T09:16:11;29.70;99.90
20370;DHT22;10344;47.592;9.600;2023-06-22T09:18:37;30.30;99.90
20370;DHT22;10344;47.592;9.600;2023-06-22T09:21:05;30.90;99.90
20370;DHT22;10344;47.592;9.600;2023-06-22T09:23:33;31.30;99.90
20370;DHT22;10344;47.592;9.600;2023-06-22T09:26:03;31.80;99.90
20370;DHT22;10344;47.592;9.600;2023-06-22T09:28:29;32.00;99.90
20370;DHT22;10344;47.592;9.600;2023-06-22T09:30:55;32.30;99.90
20370;DHT22;10344;47.592;9.600;2023-06-22T09:33:24;32.40;99.90
20370;DHT22;10344;47.592;9.600;2023-06-22T09:35:49;32.40;99.90
20370;DHT22;10344;47.592;9.600;2023-06-22T09:38:18;32.20;99.90
20370;DHT22;10344;47.592;9.600;2023-06-22T09:40:43;32.40;99.90
20370;DHT22;10344;47.592;9.600;2023-06-22T09:43:11;32.40;99.90
20370;DHT22;10344;47.592;9.600;2023-06-22T09:45:39;32.40;99.90
20370;DHT22;10344;47.592;9.600;2023-06-22T09:48:07;32.60;99.90
20370;DHT22;10344;47.592;9.600;2023-06-22T09:50:33;32.50;99.90
20370;DHT22;10344;47.592;9.600;2023-06-22T09:52:58;32.20;99.90
20370;DHT22;10344;47.592;9.600;2023-06-22T09:55:24;31.90;99.90
20370;DHT22;10344;47.592;9.600;2023-06-22T09:57:49;31.70;99.90
20370;DHT22;10344;47.592;9.600;2023-06-22T10:00:17;31.60;99.90
20370;DHT22;10344;47.592;9.600;2023-06-22T10:02:44;31.40;99.90
20370;DHT22;10344;47.592;9.600;2023-06-22T10:05:10;31.70;99.90
20370;DHT22;10344;47.592;9.600;2023-06-22T10:07:36;32.00;99.90
20370;DHT22;10344;47.592;9.600;2023-06-22T10:10:06;32.50;99.90
20370;DHT22;10344;47.592;9.600;2023-06-22T10:12:32;33.00;99.90
20370;DHT22;10344;47.592;9.600;2023-06-22T10:15:00;33.20;99.90
20370;DHT22;10344;47.592;9.600;2023-06-22T10:17:28;33.30;99.90
20370;DHT22;10344;47.592;9.600;2023-06-22T10:19:54;33.30;99.90
20370;DHT22;10344;47.592;9.600;2023-06-22T10:22:21;33.20;99.90
20370;DHT22;10344;47.592;9.600;2023-06-22T10:24:47;33.30;99.90
20370;DHT22;10344;47.592;9.600;2023-06-22T10:27:15;33.20;99.90
20370;DHT22;10344;47.592;9.600;2023-06-22T10:29:45;33.50;99.90
20370;DHT22;10344;47.592;9.600;2023-06-22T10:32:11;33.60;99.90
20370;DHT22;10344;47.592;9.600;2023-06-22T10:34:38;33.90;99.90
20370;DHT22;10344;47.592;9.600;2023-06-22T10:37:06;34.00;99.90
20370;DHT22;10344;47.592;9.600;2023-06-22T10:39:32;34.10;99.90
20370;DHT22;10344;47.592;9.600;2023-06-22T10:41:58;34.40;99.90
20370;DHT22;10344;47.592;9.600;2023-06-22T10:44:26;34.40;99.90
20370;DHT22;10344;47.592;9.600;2023-06-22T10:46:53;34.30;99.90
20370;DHT22;10344;47.592;9.600;2023-06-22T10:49:19;34.30;99.90
20370;DHT22;10344;47.592;9.600;2023-06-22T10:51:45;34.20;99.90
20370;DHT22;10344;47.592;9.600;2023-06-22T10:54:10;34.30;99.90
20370;DHT22;10344;47.592;9.600;2023-06-22T10:56:41;34.40;99.90
20370;DHT22;10344;47.592;9.600;2023-06-22T10:59:07;34.50;99.90
20370;DHT22;10344;47.592;9.600;2023-06-22T11:01:32;34.60;99.90
20370;DHT22;10344;47.592;9.600;2023-06-22T11:04:00;34.70;99.90
20370;DHT22;10344;47.592;9.600;2023-06-22T11:06:26;34.70;99.90
20370;DHT22;10344;47.592;9.600;2023-06-22T11:08:54;34.70;99.90
20370;DHT22;10344;47.592;9.600;2023-06-22T11:11:19;34.90;99.90
20370;DHT22;10344;47.592;9.600;2023-06-22T11:13:45;34.90;99.90
20370;DHT22;10344;47.592;9.600;2023-06-22T11:16:11;34.90;99.90
20370;DHT22;10344;47.592;9.600;2023-06-22T11:18:37;34.90;99.90
20370;DHT22;10344;47.592;9.600;2023-06-22T11:21:02;34.80;99.90
20370;DHT22;10344;47.592;9.600;2023-06-22T11:23:30;34.90;99.90
20370;DHT22;10344;47.592;9.600;2023-06-22T11:25:56;34.80;99.90
20370;DHT22;10344;47.592;9.600;2023-06-22T11:28:22;33.80;99.90
20370;DHT22;10344;47.592;9.600;2023-06-22T11:30:47;32.50;99.90
20370;DHT22;10344;47.592;9.600;2023-06-22T11:33:13;31.20;99.90
20370;DHT22;10344;47.592;9.600;2023-06-22T11:35:39;30.40;99.90
20370;DHT22;10344;47.592;9.600;2023-06-22T11:38:07;29.90;99.90
20370;DHT22;10344;47.592;9.600;2023-06-22T11:40:35;29.50;99.90
20370;DHT22;10344;47.592;9.600;2023-06-22T11:43:01;29.10;99.90
20370;DHT22;10344;47.592;9.600;2023-06-22T11:45:29;28.90;99.90
20370;DHT22;10344;47.592;9.600;2023-06-22T11:47:55;28.70;99.90
20370;DHT22;10344;47.592;9.600;2023-06-22T11:50:22;28.60;99.90
20370;DHT22;10344;47.592;9.600;2023-06-22T11:52:55;28.50;99.90
20370;DHT22;10344;47.592;9.600;2023-06-22T11:55:21;28.30;99.90
20370;DHT22;10344;47.592;9.600;2023-06-22T11:57:57;28.20;99.90
20370;DHT22;10344;47.592;9.600;2023-06-22T12:00:25;28.10;99.90
20370;DHT22;10344;47.592;9.600;2023-06-22T12:02:51;28.10;99.90
20370;DHT22;10344;47.592;9.600;2023-06-22T12:05:19;27.90;99.90
20370;DHT22;10344;47.592;9.600;2023-06-22T12:07:48;27.60;99.90
20370;DHT22;10344;47.592;9.600;2023-06-22T12:10:14;27.50;99.90
20370;DHT22;10344;47.592;9.600;2023-06-22T12:12:41;27.70;99.90
20370;DHT22;10344;47.592;9.600;2023-06-22T12:15:09;27.90;99.90
20370;DHT22;10344;47.592;9.600;2023-06-22T12:17:37;28.10;99.90
20370;DHT22;10344;47.592;9.600;2023-06-22T12:20:08;28.20;99.90
20370;DHT22;10344;47.592;9.600;2023-06-22T12:22:37;28.30;99.90
20370;DHT22;10344;47.592;9.600;2023-06-22T12:25:07;28.20;99.90
20370;DHT22;10344;47.592;9.600;2023-06-22T12:27:32;28.00;99.90
20370;DHT22;10344;47.592;9.600;2023-06-22T12:30:01;28.00;99.90
20370;DHT22;10344;47.592;9.600;2023-06-22T12:32:27;28.10;99.90
20370;DHT22;10344;47.592;9.600;2023-06-22T12:34:55;28.10;99.90
20370;DHT22;10344;47.592;9.600;2023-06-22T12:37:22;28.30;99.90
20370;DHT22;10344;47.592;9.600;2023-06-22T12:39:47;28.40;99.90
20370;DHT22;10344;47.592;9.600;2023-06-22T12:42:16;28.60;99.90
20370;DHT22;10344;47.592;9.600;2023-06-22T12:44:42;28.30;99.90
20370;DHT22;10344;47.592;9.600;2023-06-22T12:47:08;28.00;99.90
20370;DHT22;10344;47.592;9.600;2023-06-22T12:49:37;27.90;99.90
20370;DHT22;10344;47.592;9.600;2023-06-22T12:52:08;28.10;99.90
20370;DHT22;10344;47.592;9.600;2023-06-22T12:54:34;28.40;99.90
20370;DHT22;10344;47.592;9.600;2023-06-22T12:57:01;28.70;99.90
20370;DHT22;10344;47.592;9.600;2023-06-22T12:59:27;28.80;99.90
20370;DHT22;10344;47.592;9.600;2023-06-22T13:01:53;28.70;99.90
20370;DHT22;10344;47.592;9.600;2023-06-22T13:04:21;28.60;99.90
20370;DHT22;10344;47.592;9.600;2023-06-22T13:06:47;28.70;99.90
20370;DHT22;10344;47.592;9.600;2023-06-22T13:09:15;28.70;99.90
20370;DHT22;10344;47.592;9.600;2023-06-22T13:11:41;28.60;99.90
20370;DHT22;10344;47.592;9.600;2023-06-22T13:14:07;28.50;99.90
20370;DHT22;10344;47.592;9.600;2023-06-22T13:16:33;28.50;99.90
20370;DHT22;10344;47.592;9.600;2023-06-22T13:19:02;28.40;99.90
20370;DHT22;10344;47.592;9.600;2023-06-22T13:21:27;28.30;99.90
20370;DHT22;10344;47.592;9.600;2023-06-22T13:23:53;28.20;99.90
20370;DHT22;10344;47.592;9.600;2023-06-22T13:26:20;28.50;99.90
20370;DHT22;10344;47.592;9.600;2023-06-22T13:28:46;28.50;99.90
20370;DHT22;10344;47.592;9.600;2023-06-22T13:31:11;28.60;99.90
20370;DHT22;10344;47.592;9.600;2023-06-22T13:33:38;28.80;99.90
20370;DHT22;10344;47.592;9.600;2023-06-22T13:36:04;29.00;99.90
20370;DHT22;10344;47.592;9.600;2023-06-22T13:38:34;29.40;99.90
20370;DHT22;10344;47.592;9.600;2023-06-22T13:41:04;29.50;99.90
20370;DHT22;10344;47.592;9.600;2023-06-22T13:43:30;29.60;99.90
20370;DHT22;10344;47.592;9.600;2023-06-22T13:46:00;29.50;99.90
20370;DHT22;10344;47.592;9.600;2023-06-22T13:48:31;29.60;99.90
20370;DHT22;10344;47.592;9.600;2023-06-22T13:50:58;29.90;99.90
20370;DHT22;10344;47.592;9.600;2023-06-22T13:53:25;30.10;99.90
20370;DHT22;10344;47.592;9.600;2023-06-22T13:55:51;30.40;99.90
20370;DHT22;10344;47.592;9.600;2023-06-22T13:58:17;30.70;99.90
20370;DHT22;10344;47.592;9.600;2023-06-22T14:00:49;30.60;99.90
20370;DHT22;10344;47.592;9.600;2023-06-22T14:03:15;30.60;99.90
20370;DHT22;10344;47.592;9.600;2023-06-22T14:05:43;30.30;99.90
20370;DHT22;10344;47.592;9.600;2023-06-22T14:08:09;30.40;99.90
20370;DHT22;10344;47.592;9.600;2023-06-22T14:10:38;30.30;99.90
20370;DHT22;10344;47.592;9.600;2023-06-22T14:13:07;30.20;99.90
20370;DHT22;10344;47.592;9.600;2023-06-22T14:15:33;30.10;99.90
20370;DHT22;10344;47.592;9.600;2023-06-22T14:17:58;30.10;99.90
20370;DHT22;10344;47.592;9.600;2023-06-22T14:20:27;30.00;99.90
20370;DHT22;10344;47.592;9.600;2023-06-22T14:22:54;29.80;99.90
20370;DHT22;10344;47.592;9.600;2023-06-22T14:25:20;29.30;99.90
20370;DHT22;10344;47.592;9.600;2023-06-22T14:27:46;29.20;99.90
20370;DHT22;10344;47.592;9.600;2023-06-22T14:30:12;29.30;99.90
20370;DHT22;10344;47.592;9.600;2023-06-22T14:32:42;29.30;99.90
20370;DHT22;10344;47.592;9.600;2023-06-22T14:35:08;29.40;99.90
20370;DHT22;10344;47.592;9.600;2023-06-22T14:37:36;29.50;99.90
20370;DHT22;10344;47.592;9.600;2023-06-22T14:40:02;29.50;99.90
20370;DHT22;10344;47.592;9.600;2023-06-22T14:42:27;29.30;99.90
20370;DHT22;10344;47.592;9.600;2023-06-22T14:44:56;29.00;99.90
20370;DHT22;10344;47.592;9.600;2023-06-22T14:47:26;28.70;99.90
20370;DHT22;10344;47.592;9.600;2023-06-22T14:49:54;28.20;99.90
20370;DHT22;10344;47.592;9.600;2023-06-22T14:52:22;28.00;99.90
20370;DHT22;10344;47.592;9.600;2023-06-22T14:54:51;27.90;99.90
20370;DHT22;10344;47.592;9.600;2023-06-22T14:57:19;27.90;99.90
20370;DHT22;10344;47.592;9.600;2023-06-22T14:59:50;27.90;99.90
20370;DHT22;10344;47.592;9.600;2023-06-22T15:02:16;27.80;99.90
20370;DHT22;10344;47.592;9.600;2023-06-22T15:04:42;27.90;99.90
20370;DHT22;10344;47.592;9.600;2023-06-22T15:07:10;27.90;99.90
20370;DHT22;10344;47.592;9.600;2023-06-22T15:09:36;27.90;99.90
20370;DHT22;10344;47.592;9.600;2023-06-22T15:12:07;28.10;99.90
20370;DHT22;10344;47.592;9.600;2023-06-22T15:14:38;28.20;99.90
20370;DHT22;10344;47.592;9.600;2023-06-22T15:17:09;28.20;99.90
20370;DHT22;10344;47.592;9.600;2023-06-22T15:19:39;28.40;99.90
20370;DHT22;10344;47.592;9.600;2023-06-22T15:22:06;28.40;99.90
20370;DHT22;10344;47.592;9.600;2023-06-22T15:24:37;28.20;99.90
20370;DHT22;10344;47.592;9.600;2023-06-22T15:27:03;28.10;99.90
20370;DHT22;10344;47.592;9.600;2023-06-22T15:29:28;28.10;99.90
20370;DHT22;10344;47.592;9.600;2023-06-22T15:31:59;28.10;99.90
20370;DHT22;10344;47.592;9.600;2023-06-22T15:34:28;28.20;99.90
20370;DHT22;10344;47.592;9.600;2023-06-22T15:36:55;28.10;99.90
20370;DHT22;10344;47.592;9.600;2023-06-22T15:39:21;28.20;99.90
20370;DHT22;10344;47.592;9.600;2023-06-22T15:41:50;28.30;99.90